createdAt,value
2017-12-13T00:00:42.101Z,990.14
2017-12-13T00:01:42.050Z,990.10
2017-12-13T00:02:42.048Z,990.11
2017-12-13T00:03:42.045Z,990.09
2017-12-13T00:04:41.981Z,990.06
2017-12-13T00:05:41.961Z,990.09
2017-12-13T00:06:41.936Z,990.13
2017-12-13T00:07:41.908Z,990.10
2017-12-13T00:08:41.888Z,990.10
2017-12-13T00:09:41.882Z,990.15
2017-12-13T00:10:41.851Z,990.18
2017-12-13T00:11:41.831Z,990.14
2017-12-13T00:12:41.769Z,990.11
2017-12-13T00:13:41.752Z,990.11
2017-12-13T00:14:41.744Z,990.19
2017-12-13T00:15:41.715Z,990.11
2017-12-13T00:16:41.674Z,990.13
2017-12-13T00:17:41.648Z,990.13
2017-12-13T00:18:41.648Z,990.12
2017-12-13T00:19:41.622Z,990.11
2017-12-13T00:20:41.598Z,990.07
2017-12-13T00:21:41.581Z,990.07
2017-12-13T00:22:41.562Z,990.10
2017-12-13T00:23:41.518Z,990.16
2017-12-13T00:24:41.508Z,990.17
2017-12-13T00:25:41.456Z,990.18
2017-12-13T00:26:41.452Z,990.16
2017-12-13T00:27:41.411Z,990.17
2017-12-13T00:28:41.395Z,990.12
2017-12-13T00:29:41.362Z,990.12
2017-12-13T00:30:41.349Z,990.13
2017-12-13T00:31:41.313Z,990.11
2017-12-13T00:32:41.315Z,990.10
2017-12-13T00:33:41.305Z,990.15
2017-12-13T00:34:41.228Z,990.12
2017-12-13T00:35:41.237Z,990.16
2017-12-13T00:36:41.206Z,990.10
2017-12-13T00:37:41.172Z,990.13
2017-12-13T00:38:41.147Z,990.07
2017-12-13T00:39:41.140Z,990.15
2017-12-13T00:40:41.134Z,990.19
2017-12-13T00:41:41.077Z,990.20
2017-12-13T00:42:41.078Z,990.20
2017-12-13T00:43:41.043Z,990.20
2017-12-13T00:44:41.013Z,990.20
2017-12-13T00:45:40.972Z,990.20
2017-12-13T00:46:40.979Z,990.21
2017-12-13T00:47:40.963Z,990.21
2017-12-13T00:48:40.921Z,990.24
2017-12-13T00:49:40.893Z,990.25
2017-12-13T00:50:40.875Z,990.25
2017-12-13T00:51:40.837Z,990.23
2017-12-13T00:52:40.873Z,990.24
2017-12-13T00:53:40.761Z,990.24
2017-12-13T00:54:40.781Z,990.22
2017-12-13T00:55:40.729Z,990.20
2017-12-13T00:56:40.690Z,990.21
2017-12-13T00:57:40.709Z,990.24
2017-12-13T00:58:40.706Z,990.27
2017-12-13T00:59:40.623Z,990.26
2017-12-13T01:00:40.612Z,990.28
2017-12-13T01:01:40.585Z,990.28
2017-12-13T01:02:40.540Z,990.35
2017-12-13T01:03:40.577Z,990.35
2017-12-13T01:04:40.507Z,990.35
2017-12-13T01:05:40.502Z,990.39
2017-12-13T01:06:40.448Z,990.45
2017-12-13T01:07:40.458Z,990.40
2017-12-13T01:08:40.440Z,990.42
2017-12-13T01:09:40.375Z,990.45
2017-12-13T01:10:40.376Z,990.46
2017-12-13T01:11:40.341Z,990.45
2017-12-13T01:12:40.326Z,990.47
2017-12-13T01:13:40.273Z,990.48
2017-12-13T01:14:40.274Z,990.48
2017-12-13T01:15:40.282Z,990.51
2017-12-13T01:16:40.193Z,990.53
2017-12-13T01:17:40.178Z,990.50
2017-12-13T01:18:40.193Z,990.48
2017-12-13T01:19:40.153Z,990.48
2017-12-13T01:20:40.118Z,990.54
2017-12-13T01:21:40.101Z,990.52
2017-12-13T01:22:40.060Z,990.53
2017-12-13T01:23:40.065Z,990.60
2017-12-13T01:24:40.012Z,990.59
2017-12-13T01:25:40.006Z,990.63
2017-12-13T01:26:39.962Z,990.62
2017-12-13T01:27:40.880Z,990.65
2017-12-13T01:28:39.923Z,990.65
2017-12-13T01:29:39.918Z,990.70
2017-12-13T01:30:39.872Z,990.68
2017-12-13T01:31:39.877Z,990.71
2017-12-13T01:32:39.832Z,990.67
2017-12-13T01:33:39.810Z,990.69
2017-12-13T01:34:39.776Z,990.72
2017-12-13T01:35:39.748Z,990.66
2017-12-13T01:36:39.784Z,990.70
2017-12-13T01:37:39.743Z,990.64
2017-12-13T01:38:39.684Z,990.67
2017-12-13T01:39:39.641Z,990.64
2017-12-13T01:40:39.645Z,990.66
2017-12-13T01:41:39.618Z,990.70
2017-12-13T01:42:39.597Z,990.73
2017-12-13T01:43:39.576Z,990.72
2017-12-13T01:44:39.522Z,990.76
2017-12-13T01:45:39.501Z,990.69
2017-12-13T01:46:39.483Z,990.75
2017-12-13T01:47:39.458Z,990.71
2017-12-13T01:48:39.419Z,990.72
2017-12-13T01:49:39.396Z,990.72
2017-12-13T01:50:39.379Z,990.67
2017-12-13T01:51:39.383Z,990.71
2017-12-13T01:52:39.343Z,990.62
2017-12-13T01:53:39.355Z,990.66
2017-12-13T01:54:39.284Z,990.67
2017-12-13T01:55:39.260Z,990.61
2017-12-13T01:56:39.256Z,990.62
2017-12-13T01:57:39.198Z,990.63
2017-12-13T01:58:39.192Z,990.61
2017-12-13T01:59:39.179Z,990.64
2017-12-13T02:00:39.117Z,990.63
2017-12-13T02:01:39.084Z,990.62
2017-12-13T02:02:39.101Z,990.59
2017-12-13T02:03:39.077Z,990.59
2017-12-13T02:04:39.076Z,990.60
2017-12-13T02:05:38.979Z,990.62
2017-12-13T02:06:39.007Z,990.54
2017-12-13T02:07:38.942Z,990.53
2017-12-13T02:08:38.929Z,990.55
2017-12-13T02:09:38.903Z,990.53
2017-12-13T02:10:38.872Z,990.54
2017-12-13T02:11:38.864Z,990.51
2017-12-13T02:12:38.857Z,990.56
2017-12-13T02:13:38.847Z,990.57
2017-12-13T02:14:38.820Z,990.55
2017-12-13T02:15:38.791Z,990.57
2017-12-13T02:16:38.726Z,990.52
2017-12-13T02:17:38.706Z,990.49
2017-12-13T02:18:38.672Z,990.50
2017-12-13T02:19:38.666Z,990.51
2017-12-13T02:20:38.635Z,990.54
2017-12-13T02:21:59.641Z,990.51
2017-12-13T02:22:38.572Z,990.52
2017-12-13T02:23:59.567Z,990.50
2017-12-13T02:24:59.559Z,990.47
2017-12-13T02:25:38.497Z,990.47
2017-12-13T02:26:38.488Z,990.47
2017-12-13T02:27:38.497Z,990.41
2017-12-13T02:28:38.493Z,990.41
2017-12-13T02:29:38.433Z,990.40
2017-12-13T02:30:38.419Z,990.36
2017-12-13T02:31:38.352Z,990.34
2017-12-13T02:32:38.339Z,990.36
2017-12-13T02:33:38.311Z,990.35
2017-12-13T02:34:38.303Z,990.34
2017-12-13T02:35:38.286Z,990.33
2017-12-13T02:36:38.251Z,990.31
2017-12-13T02:37:38.239Z,990.25
2017-12-13T02:38:38.189Z,990.18
2017-12-13T02:39:38.182Z,990.13
2017-12-13T02:40:38.172Z,990.04
2017-12-13T02:41:38.130Z,989.99
2017-12-13T02:42:38.100Z,990.01
2017-12-13T02:43:38.074Z,990.05
2017-12-13T02:44:38.085Z,990.04
2017-12-13T02:45:38.001Z,990.04
2017-12-13T02:46:37.990Z,990.02
2017-12-13T02:47:37.964Z,989.97
2017-12-13T02:48:37.956Z,989.97
2017-12-13T02:49:37.924Z,989.94
2017-12-13T02:50:37.888Z,989.97
2017-12-13T02:51:37.873Z,989.97
2017-12-13T02:52:37.896Z,989.97
2017-12-13T02:53:37.856Z,990.01
2017-12-13T02:54:37.801Z,989.97
2017-12-13T02:55:37.777Z,989.95
2017-12-13T02:56:37.731Z,989.98
2017-12-13T02:57:37.744Z,990.03
2017-12-13T02:58:37.731Z,989.97
2017-12-13T02:59:37.725Z,989.98
2017-12-13T03:00:37.634Z,989.99
2017-12-13T03:01:37.659Z,989.97
2017-12-13T03:02:37.608Z,989.92
2017-12-13T03:03:37.602Z,989.90
2017-12-13T03:04:37.554Z,989.91
2017-12-13T03:05:37.522Z,989.88
2017-12-13T03:06:37.525Z,989.82
2017-12-13T03:07:37.475Z,989.77
2017-12-13T03:08:37.462Z,989.77
2017-12-13T03:09:37.416Z,989.74
2017-12-13T03:10:37.452Z,989.70
2017-12-13T03:11:37.374Z,989.69
2017-12-13T03:12:37.373Z,989.65
2017-12-13T03:13:37.337Z,989.66
2017-12-13T03:14:37.295Z,989.66
2017-12-13T03:15:37.267Z,989.67
2017-12-13T03:16:37.268Z,989.67
2017-12-13T03:17:37.200Z,989.62
2017-12-13T03:18:37.236Z,989.64
2017-12-13T03:19:37.186Z,989.59
2017-12-13T03:20:37.147Z,989.60
2017-12-13T03:21:37.172Z,989.62
2017-12-13T03:22:37.149Z,989.66
2017-12-13T03:23:37.078Z,989.59
2017-12-13T03:24:37.054Z,989.56
2017-12-13T03:25:37.044Z,989.54
2017-12-13T03:26:36.993Z,989.48
2017-12-13T03:27:36.958Z,989.47
2017-12-13T03:28:36.955Z,989.50
2017-12-13T03:29:36.968Z,989.44
2017-12-13T03:30:36.948Z,989.52
2017-12-13T03:31:36.925Z,989.58
2017-12-13T03:32:36.860Z,989.56
2017-12-13T03:33:36.853Z,989.50
2017-12-13T03:34:36.786Z,989.54
2017-12-13T03:35:36.799Z,989.50
2017-12-13T03:36:36.769Z,989.56
2017-12-13T03:37:36.724Z,989.51
2017-12-13T03:38:36.713Z,989.51
2017-12-13T03:39:36.689Z,989.47
2017-12-13T03:40:36.673Z,989.51
2017-12-13T03:41:36.642Z,989.49
2017-12-13T03:42:36.678Z,989.45
2017-12-13T03:43:36.607Z,989.40
2017-12-13T03:44:36.563Z,989.36
2017-12-13T03:45:36.545Z,989.39
2017-12-13T03:46:36.556Z,989.39
2017-12-13T03:47:36.514Z,989.40
2017-12-13T03:48:36.487Z,989.34
2017-12-13T03:49:36.422Z,989.34
2017-12-13T03:50:36.414Z,989.34
2017-12-13T03:51:36.379Z,989.34
2017-12-13T03:52:36.372Z,989.30
2017-12-13T03:53:36.323Z,989.37
2017-12-13T03:54:36.314Z,989.37
2017-12-13T03:55:36.283Z,989.34
2017-12-13T03:56:36.232Z,989.28
2017-12-13T03:57:36.220Z,989.33
2017-12-13T03:58:36.200Z,989.33
2017-12-13T03:59:36.200Z,989.31
2017-12-13T04:00:36.144Z,989.27
2017-12-13T04:01:36.112Z,989.19
2017-12-13T04:02:36.138Z,989.21
2017-12-13T04:03:36.115Z,989.22
2017-12-13T04:04:36.073Z,989.22
2017-12-13T04:05:36.036Z,989.13
2017-12-13T04:06:36.021Z,989.13
2017-12-13T04:07:36.020Z,989.12
2017-12-13T04:08:35.974Z,989.07
2017-12-13T04:09:35.923Z,989.05
2017-12-13T04:10:35.887Z,989.03
2017-12-13T04:11:35.963Z,989.07
2017-12-13T04:12:35.858Z,989.13
2017-12-13T04:13:35.867Z,989.04
2017-12-13T04:14:35.833Z,989.14
2017-12-13T04:15:35.786Z,989.12
2017-12-13T04:16:35.736Z,989.16
2017-12-13T04:17:35.756Z,989.12
2017-12-13T04:18:35.704Z,989.10
2017-12-13T04:19:35.680Z,989.06
2017-12-13T04:20:35.656Z,989.03
2017-12-13T04:21:35.622Z,989.08
2017-12-13T04:22:35.626Z,989.03
2017-12-13T04:23:35.595Z,989.04
2017-12-13T04:24:35.571Z,988.98
2017-12-13T04:25:35.503Z,988.96
2017-12-13T04:26:35.506Z,988.87
2017-12-13T04:27:35.497Z,988.90
2017-12-13T04:28:35.466Z,988.94
2017-12-13T04:29:35.468Z,988.94
2017-12-13T04:30:35.399Z,988.97
2017-12-13T04:31:35.403Z,988.97
2017-12-13T04:32:35.366Z,988.91
2017-12-13T04:33:35.391Z,988.89
2017-12-13T04:34:35.346Z,988.94
2017-12-13T04:35:35.293Z,988.98
2017-12-13T04:36:35.306Z,988.96
2017-12-13T04:37:35.915Z,988.95
2017-12-13T04:38:35.253Z,988.95
2017-12-13T04:39:35.212Z,989.00
2017-12-13T04:40:35.212Z,988.96
2017-12-13T04:41:35.136Z,988.96
2017-12-13T04:42:35.138Z,988.97
2017-12-13T04:43:35.132Z,989.00
2017-12-13T04:44:35.071Z,989.00
2017-12-13T04:45:35.043Z,988.98
2017-12-13T04:46:35.144Z,988.94
2017-12-13T04:47:35.158Z,988.95
2017-12-13T04:48:34.993Z,988.93
2017-12-13T04:49:34.952Z,988.92
2017-12-13T04:50:34.942Z,988.85
2017-12-13T04:51:34.910Z,988.85
2017-12-13T04:52:34.868Z,988.87
2017-12-13T04:53:34.865Z,988.89
2017-12-13T04:54:34.827Z,988.89
2017-12-13T04:55:34.782Z,988.90
2017-12-13T04:56:34.778Z,988.92
2017-12-13T04:57:34.752Z,988.87
2017-12-13T04:58:34.742Z,988.90
2017-12-13T04:59:34.721Z,988.84
2017-12-13T05:00:34.706Z,988.85
2017-12-13T05:01:34.679Z,988.78
2017-12-13T05:02:34.665Z,988.79
2017-12-13T05:03:34.663Z,988.79
2017-12-13T05:04:35.555Z,988.77
2017-12-13T05:05:34.607Z,988.71
2017-12-13T05:06:34.590Z,988.74
2017-12-13T05:07:34.585Z,988.76
2017-12-13T05:08:35.446Z,988.75
2017-12-13T05:09:34.490Z,988.71
2017-12-13T05:11:30.609Z,988.76
2017-12-13T05:12:30.183Z,988.77
2017-12-13T05:13:30.142Z,988.77
2017-12-13T05:14:31.224Z,988.78
2017-12-13T05:15:31.198Z,988.76
2017-12-13T05:16:31.249Z,988.76
2017-12-13T05:17:30.668Z,988.76
2017-12-13T05:18:30.651Z,988.76
2017-12-13T05:19:31.219Z,988.74
2017-12-13T05:20:30.619Z,988.73
2017-12-13T05:21:31.620Z,988.75
2017-12-13T05:22:30.160Z,988.76
2017-12-13T05:23:29.726Z,988.73
2017-12-13T05:24:29.497Z,988.74
2017-12-13T05:25:29.559Z,988.70
2017-12-13T05:26:29.537Z,988.73
2017-12-13T05:27:29.479Z,988.72
2017-12-13T05:28:29.477Z,988.71
2017-12-13T05:29:29.422Z,988.71
2017-12-13T05:30:29.402Z,988.69
2017-12-13T05:31:29.409Z,988.67
2017-12-13T05:32:29.352Z,988.64
2017-12-13T05:33:29.327Z,988.63
2017-12-13T05:34:29.307Z,988.67
2017-12-13T05:35:29.255Z,988.64
2017-12-13T05:36:29.263Z,988.65
2017-12-13T05:37:29.260Z,988.63
2017-12-13T05:38:29.189Z,988.68
2017-12-13T05:39:29.159Z,988.60
2017-12-13T05:40:29.145Z,988.62
2017-12-13T05:41:29.135Z,988.60
2017-12-13T05:42:29.108Z,988.56
2017-12-13T05:43:29.060Z,988.55
2017-12-13T05:44:29.043Z,988.54
2017-12-13T05:45:29.055Z,988.53
2017-12-13T05:46:29.008Z,988.57
2017-12-13T05:47:28.985Z,988.52
2017-12-13T05:48:31.879Z,988.51
2017-12-13T05:49:28.972Z,988.58
2017-12-13T05:50:28.876Z,988.58
2017-12-13T05:51:28.863Z,988.59
2017-12-13T05:52:28.877Z,988.60
2017-12-13T05:53:28.820Z,988.55
2017-12-13T05:54:28.812Z,988.50
2017-12-13T05:55:28.736Z,988.45
2017-12-13T05:56:28.803Z,988.50
2017-12-13T05:57:28.703Z,988.45
2017-12-13T05:58:28.691Z,988.46
2017-12-13T05:59:28.661Z,988.43
2017-12-13T06:00:28.634Z,988.38
2017-12-13T06:01:28.669Z,988.32
2017-12-13T06:02:28.614Z,988.32
2017-12-13T06:03:28.566Z,988.28
2017-12-13T06:04:28.557Z,988.29
2017-12-13T06:05:28.500Z,988.33
2017-12-13T06:06:28.475Z,988.33
2017-12-13T06:07:28.468Z,988.34
2017-12-13T06:08:28.439Z,988.33
2017-12-13T06:09:28.447Z,988.24
2017-12-13T06:10:28.419Z,988.25
2017-12-13T06:11:28.359Z,988.22
2017-12-13T06:12:28.411Z,988.28
2017-12-13T06:13:28.305Z,988.28
2017-12-13T06:14:28.310Z,988.26
2017-12-13T06:15:28.295Z,988.25
2017-12-13T06:16:28.223Z,988.28
2017-12-13T06:17:28.233Z,988.26
2017-12-13T06:18:30.890Z,988.21
2017-12-13T06:19:28.240Z,988.27
2017-12-13T06:20:28.180Z,988.17
2017-12-13T06:21:28.111Z,988.18
2017-12-13T06:22:28.118Z,988.13
2017-12-13T06:23:28.074Z,988.19
2017-12-13T06:24:28.054Z,988.14
2017-12-13T06:25:28.033Z,988.16
2017-12-13T06:26:28.034Z,988.11
2017-12-13T06:27:27.990Z,988.13
2017-12-13T06:28:27.946Z,988.15
2017-12-13T06:29:27.943Z,988.17
2017-12-13T06:30:27.922Z,988.17
2017-12-13T06:31:27.910Z,988.08
2017-12-13T06:32:27.871Z,988.11
2017-12-13T06:33:27.841Z,988.03
2017-12-13T06:34:27.792Z,988.05
2017-12-13T06:35:27.778Z,988.03
2017-12-13T06:36:27.765Z,988.03
2017-12-13T06:37:27.764Z,988.06
2017-12-13T06:38:27.737Z,988.03
2017-12-13T06:39:27.700Z,988.06
2017-12-13T06:40:27.691Z,988.05
2017-12-13T06:41:27.623Z,987.96
2017-12-13T06:42:27.670Z,988.05
2017-12-13T06:43:27.584Z,988.03
2017-12-13T06:44:27.572Z,988.05
2017-12-13T06:45:27.542Z,988.05
2017-12-13T06:46:27.532Z,988.05
2017-12-13T06:47:27.467Z,988.07
2017-12-13T06:48:27.470Z,988.06
2017-12-13T06:49:27.455Z,988.11
2017-12-13T06:50:27.415Z,988.05
2017-12-13T06:51:27.374Z,988.04
2017-12-13T06:52:27.356Z,988.05
2017-12-13T06:53:27.347Z,988.04
2017-12-13T06:54:27.321Z,988.04
2017-12-13T06:55:27.292Z,988.04
2017-12-13T06:56:27.269Z,988.11
2017-12-13T06:57:27.236Z,988.09
2017-12-13T06:58:27.261Z,988.07
2017-12-13T06:59:27.196Z,988.06
2017-12-13T07:00:27.144Z,988.05
2017-12-13T07:01:27.140Z,987.98
2017-12-13T07:02:27.143Z,988.02
2017-12-13T07:03:27.176Z,987.98
2017-12-13T07:04:27.097Z,988.03
2017-12-13T07:05:29.900Z,988.00
2017-12-13T07:06:27.049Z,987.98
2017-12-13T07:07:26.957Z,987.97
2017-12-13T07:08:26.951Z,987.95
2017-12-13T07:09:26.937Z,987.93
2017-12-13T07:10:26.954Z,987.94
2017-12-13T07:11:26.895Z,988.00
2017-12-13T07:12:26.870Z,987.92
2017-12-13T07:13:26.837Z,987.90
2017-12-13T07:14:26.810Z,987.93
2017-12-13T07:15:26.795Z,987.90
2017-12-13T07:16:26.763Z,987.90
2017-12-13T07:17:26.818Z,987.90
2017-12-13T07:18:26.826Z,987.91
2017-12-13T07:19:26.731Z,987.88
2017-12-13T07:20:26.722Z,987.90
2017-12-13T07:21:26.817Z,987.83
2017-12-13T07:22:26.766Z,987.78
2017-12-13T07:23:27.290Z,987.77
2017-12-13T07:24:27.409Z,987.77
2017-12-13T07:25:27.813Z,987.71
2017-12-13T07:26:26.832Z,987.71
2017-12-13T07:27:26.674Z,987.68
2017-12-13T07:28:26.803Z,987.66
2017-12-13T07:29:26.562Z,987.60
2017-12-13T07:30:26.612Z,987.56
2017-12-13T07:31:26.620Z,987.62
2017-12-13T07:32:26.487Z,987.60
2017-12-13T07:33:26.426Z,987.62
2017-12-13T07:34:26.518Z,987.57
2017-12-13T07:35:26.392Z,987.55
2017-12-13T07:36:26.475Z,987.52
2017-12-13T07:37:26.370Z,987.52
2017-12-13T07:38:26.422Z,987.57
2017-12-13T07:39:26.228Z,987.58
2017-12-13T07:40:26.261Z,987.50
2017-12-13T07:41:26.266Z,987.51
2017-12-13T07:42:26.222Z,987.46
2017-12-13T07:43:26.220Z,987.45
2017-12-13T07:44:26.097Z,987.46
2017-12-13T07:45:26.259Z,987.35
2017-12-13T07:46:26.210Z,987.35
2017-12-13T07:47:26.117Z,987.34
2017-12-13T07:48:26.044Z,987.33
2017-12-13T07:49:26.019Z,987.31
2017-12-13T07:50:26.033Z,987.27
2017-12-13T07:51:25.932Z,987.28
2017-12-13T07:52:25.949Z,987.25
2017-12-13T07:53:25.887Z,987.26
2017-12-13T07:54:25.942Z,987.22
2017-12-13T07:55:25.919Z,987.21
2017-12-13T07:56:25.987Z,987.20
2017-12-13T07:57:25.914Z,987.22
2017-12-13T07:58:25.885Z,987.23
2017-12-13T07:59:25.773Z,987.22
2017-12-13T08:00:25.773Z,987.21
2017-12-13T08:01:25.835Z,987.23
2017-12-13T08:02:25.723Z,987.20
2017-12-13T08:03:26.490Z,987.20
2017-12-13T08:04:25.672Z,987.10
2017-12-13T08:05:25.668Z,987.08
2017-12-13T08:06:25.642Z,987.04
2017-12-13T08:07:25.658Z,987.03
2017-12-13T08:08:25.585Z,987.04
2017-12-13T08:09:25.552Z,986.96
2017-12-13T08:10:25.563Z,986.92
2017-12-13T08:11:25.472Z,986.95
2017-12-13T08:12:25.584Z,986.96
2017-12-13T08:13:25.496Z,986.90
2017-12-13T08:14:25.371Z,986.89
2017-12-13T08:15:25.628Z,986.90
2017-12-13T08:16:25.347Z,986.91
2017-12-13T08:17:25.319Z,986.85
2017-12-13T08:18:25.317Z,986.93
2017-12-13T08:19:25.303Z,986.94
2017-12-13T08:20:25.232Z,986.87
2017-12-13T08:21:25.196Z,986.90
2017-12-13T08:22:25.274Z,986.79
2017-12-13T08:23:25.213Z,986.84
2017-12-13T08:24:25.162Z,986.81
2017-12-13T08:25:25.144Z,986.80
2017-12-13T08:26:25.100Z,986.83
2017-12-13T08:27:25.109Z,986.79
2017-12-13T08:28:25.122Z,986.84
2017-12-13T08:29:25.042Z,986.71
2017-12-13T08:30:25.049Z,986.72
2017-12-13T08:31:24.981Z,986.66
2017-12-13T08:32:24.976Z,986.64
2017-12-13T08:33:24.947Z,986.64
2017-12-13T08:34:24.937Z,986.67
2017-12-13T08:35:24.885Z,986.61
2017-12-13T08:36:24.879Z,986.61
2017-12-13T08:37:24.823Z,986.56
2017-12-13T08:38:24.817Z,986.61
2017-12-13T08:39:24.898Z,986.61
2017-12-13T08:40:24.762Z,986.51
2017-12-13T08:41:24.786Z,986.51
2017-12-13T08:42:24.711Z,986.47
2017-12-13T08:43:24.774Z,986.44
2017-12-13T08:44:24.668Z,986.43
2017-12-13T08:45:24.755Z,986.40
2017-12-13T08:46:24.748Z,986.43
2017-12-13T08:47:24.583Z,986.36
2017-12-13T08:48:24.690Z,986.33
2017-12-13T08:49:28.599Z,986.37
2017-12-13T08:50:24.678Z,986.38
2017-12-13T08:51:24.507Z,986.38
2017-12-13T08:52:25.303Z,986.33
2017-12-13T08:53:24.537Z,986.32
2017-12-13T08:54:25.305Z,986.29
2017-12-13T08:55:24.567Z,986.31
2017-12-13T08:56:25.308Z,986.19
2017-12-13T08:57:25.336Z,986.21
2017-12-13T08:58:24.511Z,986.16
2017-12-13T08:59:24.780Z,986.19
2017-12-13T09:00:24.323Z,986.21
2017-12-13T09:01:24.432Z,986.20
2017-12-13T09:02:24.387Z,986.17
2017-12-13T09:03:24.638Z,986.15
2017-12-13T09:04:24.491Z,986.10
2017-12-13T09:05:27.066Z,986.09
2017-12-13T09:06:24.344Z,986.02
2017-12-13T09:07:24.110Z,986.06
2017-12-13T09:08:24.262Z,986.02
2017-12-13T09:09:24.161Z,986.04
2017-12-13T09:10:24.123Z,985.95
2017-12-13T09:11:24.112Z,986.00
2017-12-13T09:12:24.036Z,985.93
2017-12-13T09:13:24.020Z,985.84
2017-12-13T09:14:23.997Z,985.83
2017-12-13T09:15:23.934Z,985.73
2017-12-13T09:16:23.862Z,985.72
2017-12-13T09:17:23.960Z,985.74
2017-12-13T09:18:23.961Z,985.74
2017-12-13T09:19:23.868Z,985.70
2017-12-13T09:20:23.891Z,985.69
2017-12-13T09:21:23.860Z,985.71
2017-12-13T09:22:23.815Z,985.71
2017-12-13T09:23:23.816Z,985.73
2017-12-13T09:24:23.730Z,985.67
2017-12-13T09:25:23.783Z,985.62
2017-12-13T09:26:23.696Z,985.69
2017-12-13T09:27:23.639Z,985.63
2017-12-13T09:28:23.616Z,985.64
2017-12-13T09:29:23.694Z,985.69
2017-12-13T09:30:23.546Z,985.59
2017-12-13T09:31:23.602Z,985.61
2017-12-13T09:32:23.528Z,985.52
2017-12-13T09:33:23.536Z,985.47
2017-12-13T09:34:23.528Z,985.52
2017-12-13T09:35:23.523Z,985.54
2017-12-13T09:36:23.550Z,985.46
2017-12-13T09:37:23.498Z,985.44
2017-12-13T09:38:23.443Z,985.37
2017-12-13T09:39:23.435Z,985.34
2017-12-13T09:40:23.354Z,985.29
2017-12-13T09:41:23.317Z,985.22
2017-12-13T09:42:23.375Z,985.23
2017-12-13T09:43:23.388Z,985.18
2017-12-13T09:44:26.915Z,985.14
2017-12-13T09:45:23.228Z,985.10
2017-12-13T09:46:23.195Z,985.11
2017-12-13T09:47:23.254Z,985.09
2017-12-13T09:48:23.162Z,985.09
2017-12-13T09:49:23.217Z,985.08
2017-12-13T09:50:23.168Z,985.04
2017-12-13T09:51:23.120Z,985.03
2017-12-13T09:52:23.119Z,985.01
2017-12-13T09:53:23.051Z,984.89
2017-12-13T09:54:23.045Z,984.83
2017-12-13T09:55:23.057Z,984.80
2017-12-13T09:56:22.974Z,984.80
2017-12-13T09:57:22.930Z,984.77
2017-12-13T09:58:22.896Z,984.63
2017-12-13T09:59:26.450Z,984.59
2017-12-13T10:00:22.877Z,984.61
2017-12-13T10:01:22.877Z,984.68
2017-12-13T10:02:22.848Z,984.66
2017-12-13T10:03:22.819Z,984.63
2017-12-13T10:04:22.777Z,984.65
2017-12-13T10:05:22.814Z,984.64
2017-12-13T10:06:22.768Z,984.59
2017-12-13T10:07:22.705Z,984.64
2017-12-13T10:08:23.320Z,984.53
2017-12-13T10:09:22.665Z,984.42
2017-12-13T10:10:22.665Z,984.42
2017-12-13T10:11:22.641Z,984.48
2017-12-13T10:12:22.632Z,984.41
2017-12-13T10:13:22.575Z,984.32
2017-12-13T10:14:22.539Z,984.36
2017-12-13T10:15:22.542Z,984.32
2017-12-13T10:16:22.484Z,984.35
2017-12-13T10:17:22.533Z,984.31
2017-12-13T10:18:22.473Z,984.28
2017-12-13T10:19:22.403Z,984.38
2017-12-13T10:20:22.433Z,984.21
2017-12-13T10:21:22.361Z,984.19
2017-12-13T10:22:22.369Z,984.17
2017-12-13T10:23:22.323Z,984.20
2017-12-13T10:24:22.287Z,984.17
2017-12-13T10:25:22.273Z,984.15
2017-12-13T10:26:22.277Z,984.19
2017-12-13T10:27:22.268Z,984.13
2017-12-13T10:28:22.194Z,984.28
2017-12-13T10:29:22.163Z,984.16
2017-12-13T10:30:22.168Z,984.14
2017-12-13T10:31:22.146Z,984.06
2017-12-13T10:32:22.076Z,984.08
2017-12-13T10:33:22.106Z,984.04
2017-12-13T10:34:22.105Z,984.05
2017-12-13T10:35:22.059Z,983.97
2017-12-13T10:36:22.032Z,984.05
2017-12-13T10:37:22.015Z,984.01
2017-12-13T10:38:22.040Z,984.07
2017-12-13T10:39:21.979Z,983.88
2017-12-13T10:40:21.986Z,983.87
2017-12-13T10:41:21.915Z,983.80
2017-12-13T10:42:21.877Z,983.74
2017-12-13T10:43:21.852Z,983.85
2017-12-13T10:44:21.854Z,983.82
2017-12-13T10:45:24.482Z,983.84
2017-12-13T10:46:21.757Z,983.84
2017-12-13T10:47:21.775Z,983.81
2017-12-13T10:48:21.761Z,983.85
2017-12-13T10:49:21.687Z,983.76
2017-12-13T10:50:21.714Z,983.78
2017-12-13T10:51:21.677Z,983.82
2017-12-13T10:52:21.632Z,983.75
2017-12-13T10:53:21.595Z,983.72
2017-12-13T10:54:21.647Z,983.62
2017-12-13T10:55:21.622Z,983.62
2017-12-13T10:56:24.425Z,983.60
2017-12-13T10:57:21.500Z,983.54
2017-12-13T10:58:21.551Z,983.54
2017-12-13T10:59:21.498Z,983.50
2017-12-13T11:00:21.485Z,983.53
2017-12-13T11:01:23.960Z,983.55
2017-12-13T11:02:21.416Z,983.46
2017-12-13T11:03:21.377Z,983.45
2017-12-13T11:04:21.324Z,983.51
2017-12-13T11:05:21.346Z,983.37
2017-12-13T11:06:21.320Z,983.40
2017-12-13T11:07:21.289Z,983.38
2017-12-13T11:08:21.286Z,983.29
2017-12-13T11:09:21.254Z,983.44
2017-12-13T11:10:21.259Z,983.36
2017-12-13T11:11:21.150Z,983.19
2017-12-13T11:12:21.208Z,983.20
2017-12-13T11:13:21.174Z,983.17
2017-12-13T11:14:21.201Z,983.15
2017-12-13T11:15:21.105Z,983.05
2017-12-13T11:16:21.093Z,983.04
2017-12-13T11:17:21.016Z,982.98
2017-12-13T11:18:21.068Z,983.01
2017-12-13T11:19:20.985Z,982.94
2017-12-13T11:20:20.983Z,982.95
2017-12-13T11:21:20.942Z,982.90
2017-12-13T11:22:20.918Z,982.80
2017-12-13T11:23:20.932Z,982.84
2017-12-13T11:24:20.876Z,982.83
2017-12-13T11:25:20.868Z,982.69
2017-12-13T11:26:20.853Z,982.65
2017-12-13T11:27:20.826Z,982.69
2017-12-13T11:28:20.796Z,982.60
2017-12-13T11:29:20.756Z,982.55
2017-12-13T11:30:20.759Z,982.57
2017-12-13T11:31:20.699Z,982.54
2017-12-13T11:32:20.767Z,982.50
2017-12-13T11:33:20.666Z,982.45
2017-12-13T11:34:20.638Z,982.41
2017-12-13T11:35:20.673Z,982.35
2017-12-13T11:36:20.572Z,982.36
2017-12-13T11:37:20.759Z,982.34
2017-12-13T11:38:23.468Z,982.33
2017-12-13T11:39:20.529Z,982.21
2017-12-13T11:40:20.537Z,982.22
2017-12-13T11:41:20.504Z,982.19
2017-12-13T11:42:20.423Z,982.09
2017-12-13T11:43:20.394Z,982.14
2017-12-13T11:44:20.385Z,982.03
2017-12-13T11:45:20.404Z,981.98
2017-12-13T11:46:20.370Z,981.89
2017-12-13T11:47:20.366Z,981.88
2017-12-13T11:48:20.321Z,981.84
2017-12-13T11:49:20.282Z,981.87
2017-12-13T11:50:20.223Z,981.79
2017-12-13T11:51:20.253Z,981.95
2017-12-13T11:52:20.232Z,981.79
2017-12-13T11:53:20.211Z,981.72
2017-12-13T11:54:23.053Z,981.61
2017-12-13T11:55:20.115Z,981.58
2017-12-13T11:56:20.163Z,981.62
2017-12-13T11:57:20.145Z,981.61
2017-12-13T11:58:20.144Z,981.58
2017-12-13T11:59:20.085Z,981.61
2017-12-13T12:00:20.133Z,981.38
2017-12-13T12:01:20.003Z,981.35
2017-12-13T12:02:20.003Z,981.36
2017-12-13T12:03:19.964Z,981.35
2017-12-13T12:04:19.933Z,981.23
2017-12-13T12:05:19.929Z,981.23
2017-12-13T12:06:19.912Z,981.20
2017-12-13T12:07:19.869Z,981.20
2017-12-13T12:08:19.890Z,981.17
2017-12-13T12:09:19.860Z,981.28
2017-12-13T12:10:19.824Z,981.08
2017-12-13T12:11:19.811Z,981.26
2017-12-13T12:12:19.752Z,981.20
2017-12-13T12:13:19.799Z,981.21
2017-12-13T12:14:22.504Z,981.14
2017-12-13T12:15:19.694Z,981.20
2017-12-13T12:16:19.699Z,980.99
2017-12-13T12:17:19.669Z,981.14
2017-12-13T12:18:19.635Z,981.04
2017-12-13T12:19:19.710Z,980.96
2017-12-13T12:20:19.576Z,980.88
2017-12-13T12:21:19.544Z,980.95
2017-12-13T12:22:19.519Z,980.89
2017-12-13T12:23:19.492Z,980.78
2017-12-13T12:24:19.456Z,980.71
2017-12-13T12:25:23.025Z,980.63
2017-12-13T12:26:19.417Z,980.58
2017-12-13T12:27:19.400Z,980.58
2017-12-13T12:28:19.403Z,980.65
2017-12-13T12:29:19.336Z,980.73